Time;durP1;ratioP1;P1;durP2;ratioP2;P2;SDS_P1;SDS_P2;PMS_P1;PMS_P2;Temp;Humidity;BMP_temperature;BMP_pressure;BME280_temperature;BME280_humidity;BME280_pressure;Samples;Min_cycle;Max_cycle;Signal;HPM_P1;HPM_P2
2023/01/30 00:01:19;;;;;;;30.48;15.48;;;;;;;;;;5012408;28;20033;-75
2023/01/30 00:03:45;;;;;;;39.67;19.55;;;;;;;;;;4978722;28;20037;-75
2023/01/30 00:06:11;;;;;;;21.85;13.63;;;;;;;;;;5012253;28;20545;-75
2023/01/30 00:08:37;;;;;;;66.38;32.22;;;;;;;;;;5010796;28;20063;-75
2023/01/30 00:11:07;;;;;;;51.55;24.05;;;;;;;;;;5012249;28;20448;-75
2023/01/30 00:13:33;;;;;;;64.82;28.27;;;;;;;;;;5010561;28;20427;-75
2023/01/30 00:15:59;;;;;;;41.95;18.02;;;;;;;;;;5012315;28;20034;-76
2023/01/30 00:18:25;;;;;;;59.60;25.63;;;;;;;;;;5010402;28;20107;-75
2023/01/30 00:20:57;;;;;;;37.97;20.40;;;;;;;;;;5030959;28;20075;-75
2023/01/30 00:23:27;;;;;;;37.78;18.00;;;;;;;;;;5031656;28;20044;-75
2023/01/30 00:25:53;;;;;;;56.05;28.00;;;;;;;;;;5031740;28;20500;-74
2023/01/30 00:28:19;;;;;;;21.77;14.57;;;;;;;;;;5031444;28;20136;-75
2023/01/30 00:30:51;;;;;;;54.00;27.25;;;;;;;;;;5031665;28;20787;-74
2023/01/30 00:33:18;;;;;;;35.78;16.75;;;;;;;;;;5030192;28;20029;-73
2023/01/30 00:35:44;;;;;;;26.75;14.00;;;;;;;;;;5029773;28;20060;-74
2023/01/30 00:38:10;;;;;;;31.92;18.27;;;;;;;;;;5030119;28;20049;-74
2023/01/30 00:40:36;;;;;;;36.70;16.75;;;;;;;;;;5030023;28;20037;-74
2023/01/30 00:48:32;;;;;;;55.28;24.45;;;;;;;;;;5031269;28;20029;-73
2023/01/30 00:50:58;;;;;;;28.13;14.00;;;;;;;;;;5031326;28;20033;-74
2023/01/30 00:53:24;;;;;;;49.28;20.83;;;;;;;;;;5029841;28;20059;-74
2023/01/30 00:55:51;;;;;;;38.97;16.40;;;;;;;;;;5031160;28;20044;-75
2023/01/30 00:58:17;;;;;;;36.45;17.38;;;;;;;;;;5031837;28;20052;-74
2023/01/30 01:00:43;;;;;;;45.30;20.23;;;;;;;;;;5031145;28;20570;-75
2023/01/30 01:03:09;;;;;;;54.30;23.05;;;;;;;;;;5029931;28;20037;-75
2023/01/30 01:05:35;;;;;;;52.63;21.15;;;;;;;;;;5029769;28;20037;-76
2023/01/30 01:08:02;;;;;;;98.95;43.38;;;;;;;;;;5031149;28;20095;-74
2023/01/30 01:10:28;;;;;;;65.15;28.15;;;;;;;;;;5029703;28;20041;-74
2023/01/30 01:12:54;;;;;;;36.03;20.08;;;;;;;;;;5031225;28;20037;-74
2023/01/30 01:15:21;;;;;;;48.97;23.60;;;;;;;;;;5031166;28;20040;-74
2023/01/30 01:17:48;;;;;;;38.05;21.15;;;;;;;;;;5030974;28;20029;-72
2023/01/30 01:20:14;;;;;;;38.47;18.25;;;;;;;;;;5029787;28;20033;-74
2023/01/30 01:22:40;;;;;;;35.42;15.25;;;;;;;;;;5012760;28;20123;-74
2023/01/30 01:25:07;;;;;;;43.88;19.15;;;;;;;;;;5029521;28;20611;-75
2023/01/30 01:27:33;;;;;;;43.88;20.77;;;;;;;;;;5030410;28;20083;-74
2023/01/30 01:30:00;;;;;;;39.83;21.35;;;;;;;;;;5030745;28;20038;-74
2023/01/30 01:32:25;;;;;;;24.83;13.07;;;;;;;;;;5029212;28;20041;-73
2023/01/30 01:34:52;;;;;;;28.95;12.85;;;;;;;;;;5029111;28;20224;-73
2023/01/30 01:37:18;;;;;;;29.10;14.00;;;;;;;;;;5030491;28;20053;-73
2023/01/30 01:42:29;;;;;;;23.80;13.05;;;;;;;;;;5030232;28;20036;-74
2023/01/30 01:44:57;;;;;;;28.08;14.68;;;;;;;;;;5012698;28;20052;-74
2023/01/30 01:47:23;;;;;;;30.45;15.40;;;;;;;;;;5029152;28;20123;-75
2023/01/30 01:49:49;;;;;;;24.60;13.93;;;;;;;;;;5030145;28;20061;-74
2023/01/30 01:52:15;;;;;;;34.00;18.92;;;;;;;;;;5030714;28;20506;-75
2023/01/30 01:54:48;;;;;;;19.60;13.25;;;;;;;;;;5030309;28;20048;-73
2023/01/30 01:57:19;;;;;;;32.75;16.52;;;;;;;;;;5030272;28;20551;-75
2023/01/30 01:59:50;;;;;;;12.68;8.52;;;;;;;;;;5012354;28;20156;-75
2023/01/30 02:02:16;;;;;;;30.50;13.20;;;;;;;;;;5029236;28;20052;-74
2023/01/30 02:05:01;;;;;;;31.70;17.48;;;;;;;;;;5028065;28;20460;-74
2023/01/30 02:07:32;;;;;;;24.73;13.32;;;;;;;;;;5032983;28;20021;-73
2023/01/30 02:09:58;;;;;;;25.23;13.73;;;;;;;;;;5012865;28;20514;-74
2023/01/30 02:12:24;;;;;;;22.45;13.00;;;;;;;;;;5032951;28;20038;-74
2023/01/30 02:14:52;;;;;;;31.77;16.35;;;;;;;;;;5031396;28;20175;-73
2023/01/30 02:17:38;;;;;;;32.22;16.75;;;;;;;;;;5001666;28;20034;-73
2023/01/30 02:20:23;;;;;;;20.85;12.57;;;;;;;;;;5029430;28;20622;-74
2023/01/30 02:23:01;;;;;;;29.58;14.68;;;;;;;;;;5029461;28;20531;-74
2023/01/30 02:25:40;;;;;;;23.88;14.20;;;;;;;;;;5030069;28;20041;-74
2023/01/30 02:28:09;;;;;;;23.50;13.68;;;;;;;;;;5029065;28;20455;-73
2023/01/30 02:30:54;;;;;;;23.15;13.93;;;;;;;;;;5028227;28;20057;-73
2023/01/30 02:33:31;;;;;;;29.63;17.13;;;;;;;;;;5029953;28;20504;-73
2023/01/30 02:36:08;;;;;;;21.15;11.93;;;;;;;;;;5011868;28;20053;-73
2023/01/30 02:38:37;;;;;;;21.77;14.02;;;;;;;;;;5012539;28;20041;-73
2023/01/30 02:41:29;;;;;;;15.35;10.60;;;;;;;;;;5012672;28;20496;-73
2023/01/30 02:44:14;;;;;;;28.85;18.42;;;;;;;;;;5006099;28;20049;-72
2023/01/30 02:46:56;;;;;;;16.65;10.27;;;;;;;;;;5028591;28;20557;-73
2023/01/30 02:49:25;;;;;;;18.75;12.73;;;;;;;;;;5029977;28;20037;-73
2023/01/30 02:51:51;;;;;;;25.27;15.32;;;;;;;;;;5028595;28;20091;-73
2023/01/30 02:54:18;;;;;;;19.13;12.57;;;;;;;;;;5028457;28;20065;-73
2023/01/30 02:56:44;;;;;;;18.67;12.15;;;;;;;;;;5029562;28;20033;-73
2023/01/30 02:59:10;;;;;;;24.85;12.32;;;;;;;;;;5029658;28;20073;-74
2023/01/30 03:01:46;;;;;;;19.30;12.48;;;;;;;;;;5016958;28;20056;-74
2023/01/30 03:04:25;;;;;;;24.77;14.98;;;;;;;;;;5028575;28;20049;-73
2023/01/30 03:06:58;;;;;;;25.85;15.10;;;;;;;;;;5027628;28;20030;-73
2023/01/30 03:09:29;;;;;;;23.92;13.85;;;;;;;;;;5029216;28;20649;-73
2023/01/30 03:12:07;;;;;;;27.00;14.55;;;;;;;;;;5027402;28;20036;-74
2023/01/30 03:14:54;;;;;;;25.35;14.82;;;;;;;;;;5011547;28;20406;-74
2023/01/30 03:17:21;;;;;;;24.95;10.98;;;;;;;;;;5031522;28;20050;-74
2023/01/30 03:19:47;;;;;;;14.70;10.30;;;;;;;;;;5031344;28;20046;-74
2023/01/30 03:22:15;;;;;;;16.63;10.73;;;;;;;;;;5038661;28;20025;-74
2023/01/30 03:24:42;;;;;;;21.85;13.15;;;;;;;;;;5039381;28;20669;-73
2023/01/30 03:27:10;;;;;;;16.27;10.07;;;;;;;;;;5051338;28;20211;-73
2023/01/30 03:29:36;;;;;;;20.30;13.43;;;;;;;;;;5067802;28;20041;-74
2023/01/30 03:32:02;;;;;;;14.93;9.63;;;;;;;;;;5044398;28;20033;-73
2023/01/30 03:34:28;;;;;;;27.75;16.02;;;;;;;;;;5032796;28;20092;-73
2023/01/30 03:36:55;;;;;;;26.35;16.02;;;;;;;;;;5031073;28;20064;-73
2023/01/30 03:39:22;;;;;;;22.30;13.52;;;;;;;;;;5032431;28;20431;-73
2023/01/30 03:41:48;;;;;;;22.02;12.38;;;;;;;;;;5046880;28;20041;-74
2023/01/30 03:44:16;;;;;;;28.88;15.57;;;;;;;;;;5017793;28;20098;-72
2023/01/30 03:46:42;;;;;;;20.85;13.40;;;;;;;;;;5035074;28;20041;-76
2023/01/30 03:49:08;;;;;;;20.58;12.30;;;;;;;;;;5031457;28;20033;-77
2023/01/30 03:51:34;;;;;;;22.63;10.52;;;;;;;;;;5049384;28;20033;-76
2023/01/30 03:54:00;;;;;;;21.52;14.00;;;;;;;;;;5051671;28;20063;-80
2023/01/30 03:56:26;;;;;;;18.20;9.38;;;;;;;;;;5052423;28;20448;-77
2023/01/30 03:58:52;;;;;;;16.20;11.13;;;;;;;;;;5050968;28;20041;-75
2023/01/30 04:01:23;;;;;;;21.48;12.20;;;;;;;;;;5034556;28;20040;-76
2023/01/30 04:03:49;;;;;;;12.57;8.75;;;;;;;;;;5052738;28;20037;-74
2023/01/30 04:06:15;;;;;;;21.67;13.00;;;;;;;;;;5051196;28;20503;-76
2023/01/30 04:08:41;;;;;;;21.42;13.48;;;;;;;;;;5050541;28;20068;-77
2023/01/30 04:11:12;;;;;;;22.33;13.00;;;;;;;;;;5050870;28;20119;-77
2023/01/30 04:13:38;;;;;;;21.65;11.23;;;;;;;;;;5030090;28;20071;-77
2023/01/30 04:16:15;;;;;;;16.58;10.40;;;;;;;;;;5042745;28;20037;-78
2023/01/30 04:18:59;;;;;;;14.57;9.90;;;;;;;;;;5052116;28;20048;-77
2023/01/30 04:21:29;;;;;;;23.45;15.23;;;;;;;;;;5050764;28;20577;-78
2023/01/30 04:23:55;;;;;;;20.63;11.80;;;;;;;;;;5049949;28;20568;-78
2023/01/30 04:26:21;;;;;;;17.45;11.27;;;;;;;;;;5032555;28;20037;-78
2023/01/30 04:28:48;;;;;;;25.25;16.70;;;;;;;;;;5029133;28;20103;-77
2023/01/30 04:31:14;;;;;;;25.05;12.52;;;;;;;;;;5028845;28;20574;-77
2023/01/30 04:34:03;;;;;;;15.65;9.55;;;;;;;;;;5022183;28;20047;-77
2023/01/30 04:36:30;;;;;;;14.55;10.45;;;;;;;;;;5028808;28;20077;-78
2023/01/30 04:39:01;;;;;;;22.23;14.90;;;;;;;;;;5011695;28;20416;-79
2023/01/30 04:41:29;;;;;;;16.42;12.43;;;;;;;;;;5029783;28;20042;-78
2023/01/30 04:43:59;;;;;;;11.15;8.95;;;;;;;;;;5029980;28;20037;-77
2023/01/30 04:46:37;;;;;;;15.73;11.35;;;;;;;;;;5030014;28;20099;-77
2023/01/30 04:49:04;;;;;;;23.70;15.63;;;;;;;;;;5030131;28;20046;-77
2023/01/30 04:51:30;;;;;;;20.08;14.48;;;;;;;;;;5030243;28;20021;-77
2023/01/30 04:53:58;;;;;;;22.35;16.52;;;;;;;;;;5013853;28;20041;-76
2023/01/30 04:56:24;;;;;;;24.55;16.33;;;;;;;;;;5013736;28;20045;-76
2023/01/30 04:58:52;;;;;;;18.35;13.10;;;;;;;;;;4997151;28;20045;-75
2023/01/30 05:01:20;;;;;;;15.15;11.68;;;;;;;;;;5031838;28;20451;-77
2023/01/30 05:03:48;;;;;;;18.27;12.00;;;;;;;;;;5030924;28;20380;-77
2023/01/30 05:06:14;;;;;;;19.42;12.50;;;;;;;;;;5031307;28;20030;-75
2023/01/30 05:08:40;;;;;;;15.38;12.02;;;;;;;;;;5030802;28;20090;-77
2023/01/30 05:11:06;;;;;;;10.05;8.70;;;;;;;;;;5030892;28;20052;-77
2023/01/30 05:13:32;;;;;;;8.15;6.72;;;;;;;;;;5031027;28;20025;-78
2023/01/30 05:15:58;;;;;;;13.90;8.95;;;;;;;;;;5029353;28;20155;-78
2023/01/30 05:18:24;;;;;;;13.00;9.02;;;;;;;;;;5030793;28;20052;-78
2023/01/30 05:20:50;;;;;;;8.43;7.63;;;;;;;;;;5030478;28;20745;-78
2023/01/30 05:23:16;;;;;;;21.02;9.70;;;;;;;;;;5030847;28;20037;-77
2023/01/30 05:25:42;;;;;;;12.70;9.18;;;;;;;;;;5030543;28;20037;-77
2023/01/30 05:28:09;;;;;;;19.80;13.95;;;;;;;;;;5030795;28;20065;-77
2023/01/30 05:30:35;;;;;;;15.07;10.30;;;;;;;;;;5029225;28;20232;-77
2023/01/30 05:33:01;;;;;;;7.90;7.13;;;;;;;;;;5030468;28;20065;-78
2023/01/30 05:35:28;;;;;;;8.50;7.20;;;;;;;;;;5030450;28;20065;-77
2023/01/30 05:37:54;;;;;;;11.93;9.35;;;;;;;;;;5030322;28;20107;-78
2023/01/30 05:40:20;;;;;;;11.75;8.98;;;;;;;;;;5032289;28;20037;-78
2023/01/30 05:42:46;;;;;;;16.95;9.55;;;;;;;;;;5031511;28;20052;-77
2023/01/30 05:45:12;;;;;;;12.38;9.57;;;;;;;;;;5014181;28;20034;-77
2023/01/30 05:47:37;;;;;;;11.13;9.93;;;;;;;;;;5046441;28;20523;-77
2023/01/30 05:50:04;;;;;;;10.45;8.25;;;;;;;;;;5029055;28;20038;-77
2023/01/30 05:52:30;;;;;;;7.32;6.65;;;;;;;;;;5030121;28;20068;-77
2023/01/30 05:54:56;;;;;;;18.70;14.15;;;;;;;;;;5029561;28;20030;-76
2023/01/30 05:57:22;;;;;;;10.75;8.77;;;;;;;;;;5029999;28;20068;-77
2023/01/30 05:59:48;;;;;;;15.32;10.60;;;;;;;;;;5061208;28;20083;-76
2023/01/30 06:02:15;;;;;;;13.73;10.80;;;;;;;;;;5030110;28;20064;-76
2023/01/30 06:04:40;;;;;;;14.20;10.40;;;;;;;;;;5028245;28;20044;-76
2023/01/30 06:07:06;;;;;;;21.17;15.20;;;;;;;;;;5029925;28;20083;-76
2023/01/30 06:09:32;;;;;;;16.15;10.50;;;;;;;;;;5029911;28;20037;-78
2023/01/30 06:11:59;;;;;;;19.20;12.77;;;;;;;;;;5030118;28;20037;-77
2023/01/30 06:14:25;;;;;;;12.63;10.02;;;;;;;;;;5028788;28;20033;-76
2023/01/30 06:16:50;;;;;;;17.80;12.57;;;;;;;;;;5030053;28;20182;-77
2023/01/30 06:19:16;;;;;;;23.90;15.77;;;;;;;;;;5031335;28;20227;-76
2023/01/30 06:21:43;;;;;;;15.77;13.55;;;;;;;;;;5033586;28;20606;-78
2023/01/30 06:24:09;;;;;;;17.40;11.93;;;;;;;;;;5035239;28;20041;-75
2023/01/30 06:26:35;;;;;;;15.35;9.30;;;;;;;;;;5030234;28;20176;-76
2023/01/30 06:29:02;;;;;;;18.52;12.27;;;;;;;;;;5029883;28;20065;-76
2023/01/30 06:31:28;;;;;;;16.75;13.40;;;;;;;;;;5034000;28;20099;-76
2023/01/30 06:33:54;;;;;;;14.32;12.73;;;;;;;;;;5036564;28;20061;-76
2023/01/30 06:36:20;;;;;;;19.58;11.38;;;;;;;;;;5054049;28;20049;-76
2023/01/30 06:38:47;;;;;;;22.55;12.55;;;;;;;;;;5040630;28;20037;-76
2023/01/30 06:41:13;;;;;;;15.02;11.18;;;;;;;;;;5040388;28;20052;-77
2023/01/30 06:43:40;;;;;;;9.43;8.43;;;;;;;;;;5037888;28;20094;-77
2023/01/30 06:46:06;;;;;;;16.55;11.27;;;;;;;;;;5037924;28;20067;-76
2023/01/30 06:48:32;;;;;;;12.05;10.07;;;;;;;;;;5033196;28;20128;-77
2023/01/30 06:50:58;;;;;;;13.43;8.60;;;;;;;;;;5029000;28;20171;-77
2023/01/30 06:53:29;;;;;;;17.30;12.60;;;;;;;;;;5029491;28;20048;-77
2023/01/30 06:55:58;;;;;;;21.43;13.57;;;;;;;;;;5027784;28;20590;-76
2023/01/30 06:58:24;;;;;;;10.90;9.18;;;;;;;;;;5029442;28;20048;-76
2023/01/30 07:00:50;;;;;;;17.83;12.70;;;;;;;;;;5028992;28;20045;-76
2023/01/30 07:03:16;;;;;;;14.23;12.20;;;;;;;;;;5029745;28;20088;-77
2023/01/30 07:05:43;;;;;;;11.40;9.32;;;;;;;;;;5029440;28;20037;-76
2023/01/30 07:08:09;;;;;;;12.55;10.93;;;;;;;;;;5044448;28;20038;-77
2023/01/30 07:10:35;;;;;;;17.95;12.23;;;;;;;;;;5029310;28;20576;-78
2023/01/30 07:13:01;;;;;;;13.20;11.85;;;;;;;;;;5027651;28;20557;-77
2023/01/30 07:15:27;;;;;;;8.85;7.97;;;;;;;;;;5027996;28;20029;-76
2023/01/30 07:17:53;;;;;;;13.35;9.05;;;;;;;;;;5036574;28;20045;-77
2023/01/30 07:20:19;;;;;;;13.55;10.68;;;;;;;;;;5037473;28;20095;-77
2023/01/30 07:22:53;;;;;;;14.27;12.02;;;;;;;;;;5029316;28;20128;-77
2023/01/30 07:25:19;;;;;;;9.20;8.02;;;;;;;;;;5029069;28;20088;-76
2023/01/30 07:27:51;;;;;;;11.57;8.00;;;;;;;;;;5028474;28;20068;-77
2023/01/30 07:30:17;;;;;;;13.98;11.55;;;;;;;;;;5027422;28;20201;-76
2023/01/30 07:32:48;;;;;;;9.25;7.75;;;;;;;;;;5019719;28;20040;-75
2023/01/30 07:35:14;;;;;;;11.85;8.00;;;;;;;;;;5023659;28;20483;-75
2023/01/30 07:37:40;;;;;;;18.30;14.05;;;;;;;;;;5017149;28;20607;-75
2023/01/30 07:40:09;;;;;;;12.82;10.20;;;;;;;;;;5015645;28;20415;-74
2023/01/30 07:42:35;;;;;;;14.15;10.73;;;;;;;;;;5012868;28;20045;-74
2023/01/30 07:45:01;;;;;;;15.52;12.18;;;;;;;;;;5015609;28;20133;-74
2023/01/30 07:47:27;;;;;;;9.82;7.53;;;;;;;;;;5013123;28;20117;-74
2023/01/30 07:49:53;;;;;;;13.18;9.85;;;;;;;;;;5018438;28;20451;-80
2023/01/30 07:52:18;;;;;;;15.90;12.65;;;;;;;;;;5022198;28;20531;-79
2023/01/30 07:54:44;;;;;;;13.60;11.70;;;;;;;;;;5020411;28;20068;-77
2023/01/30 07:57:10;;;;;;;8.77;7.88;;;;;;;;;;5012785;28;20072;-76
2023/01/30 07:59:37;;;;;;;11.18;9.98;;;;;;;;;;5017271;28;20053;-75
2023/01/30 08:02:03;;;;;;;14.93;9.60;;;;;;;;;;5015483;28;20030;-77
2023/01/30 08:04:29;;;;;;;13.38;9.82;;;;;;;;;;5021034;28;20448;-76
2023/01/30 08:06:55;;;;;;;11.27;10.00;;;;;;;;;;5019239;28;20496;-75
2023/01/30 08:09:20;;;;;;;13.50;11.52;;;;;;;;;;5018680;28;20113;-76
2023/01/30 08:11:46;;;;;;;13.32;11.38;;;;;;;;;;5033370;28;20095;-75
2023/01/30 08:14:13;;;;;;;15.50;11.15;;;;;;;;;;5021946;28;20123;-75
2023/01/30 08:16:39;;;;;;;18.70;11.25;;;;;;;;;;5031208;28;20117;-75
2023/01/30 08:19:05;;;;;;;13.05;11.15;;;;;;;;;;5029989;28;20103;-77
2023/01/30 08:21:31;;;;;;;10.93;7.93;;;;;;;;;;5013992;28;20092;-75
2023/01/30 08:23:57;;;;;;;12.80;10.63;;;;;;;;;;5016734;28;20412;-76
2023/01/30 08:26:23;;;;;;;10.43;8.65;;;;;;;;;;5019914;28;20377;-75
2023/01/30 08:28:50;;;;;;;14.00;11.85;;;;;;;;;;5016164;28;20024;-75
2023/01/30 08:31:16;;;;;;;11.48;9.73;;;;;;;;;;5033533;28;20144;-75
2023/01/30 08:33:42;;;;;;;16.00;14.20;;;;;;;;;;5026225;28;20125;-75
2023/01/30 08:36:08;;;;;;;13.68;10.75;;;;;;;;;;5023419;28;20789;-76
2023/01/30 08:38:34;;;;;;;12.30;10.07;;;;;;;;;;5029388;28;20568;-75
2023/01/30 08:41:00;;;;;;;10.05;9.10;;;;;;;;;;5029709;28;20038;-75
2023/01/30 08:43:26;;;;;;;13.20;11.38;;;;;;;;;;5015369;28;20091;-74
2023/01/30 08:45:53;;;;;;;12.43;9.68;;;;;;;;;;5018488;28;20034;-74
2023/01/30 08:48:19;;;;;;;10.23;9.02;;;;;;;;;;5016974;28;20416;-74
2023/01/30 08:50:45;;;;;;;14.15;11.27;;;;;;;;;;5051878;28;20097;-75
2023/01/30 08:53:11;;;;;;;11.88;9.35;;;;;;;;;;5016619;28;20397;-74
2023/01/30 08:55:37;;;;;;;9.88;8.45;;;;;;;;;;5018382;28;20029;-74
2023/01/30 08:58:03;;;;;;;11.82;10.32;;;;;;;;;;5018742;28;20044;-75
2023/01/30 09:00:29;;;;;;;12.65;11.07;;;;;;;;;;5018058;28;20044;-74
2023/01/30 09:02:56;;;;;;;11.88;7.70;;;;;;;;;;5026713;28;20069;-74
2023/01/30 09:05:22;;;;;;;10.10;9.05;;;;;;;;;;5020455;28;20206;-75
2023/01/30 09:07:48;;;;;;;8.48;7.50;;;;;;;;;;5019073;28;20445;-75
2023/01/30 09:10:14;;;;;;;10.43;9.35;;;;;;;;;;5020234;28;20083;-74
2023/01/30 09:12:40;;;;;;;13.07;10.70;;;;;;;;;;5017299;28;20539;-75
2023/01/30 09:15:07;;;;;;;9.55;8.38;;;;;;;;;;5016750;28;20087;-74
2023/01/30 09:17:33;;;;;;;12.25;9.93;;;;;;;;;;5020698;28;20037;-74
2023/01/30 09:19:59;;;;;;;9.25;8.00;;;;;;;;;;5019131;28;20044;-76
2023/01/30 09:22:25;;;;;;;14.23;11.68;;;;;;;;;;5033067;28;20038;-75
2023/01/30 09:24:51;;;;;;;11.05;8.10;;;;;;;;;;5016223;28;20536;-76
2023/01/30 09:27:17;;;;;;;9.73;8.73;;;;;;;;;;5020787;28;20029;-76
2023/01/30 09:29:42;;;;;;;13.32;11.75;;;;;;;;;;5016649;28;20034;-77
2023/01/30 09:32:09;;;;;;;10.23;8.52;;;;;;;;;;5017385;28;20064;-76
2023/01/30 09:34:34;;;;;;;12.43;11.23;;;;;;;;;;5016136;28;20137;-77
2023/01/30 09:37:01;;;;;;;8.52;7.72;;;;;;;;;;5017186;28;20041;-75
2023/01/30 09:39:28;;;;;;;10.18;8.75;;;;;;;;;;5031021;28;20056;-78
2023/01/30 09:42:01;;;;;;;10.18;7.38;;;;;;;;;;5019807;28;20025;-75
2023/01/30 09:44:37;;;;;;;11.90;10.68;;;;;;;;;;5015915;28;20037;-76
2023/01/30 09:47:21;;;;;;;10.80;9.00;;;;;;;;;;5020132;28;20037;-75
2023/01/30 09:49:47;;;;;;;8.32;7.47;;;;;;;;;;5015937;28;20037;-76
2023/01/30 09:52:22;;;;;;;10.98;7.45;;;;;;;;;;5015242;28;20037;-76
2023/01/30 09:54:48;;;;;;;14.80;9.20;;;;;;;;;;5018750;28;20511;-76
2023/01/30 09:57:15;;;;;;;9.60;8.70;;;;;;;;;;5019719;28;20125;-75
2023/01/30 09:59:47;;;;;;;10.52;7.68;;;;;;;;;;5014737;28;20041;-76
2023/01/30 10:02:32;;;;;;;14.48;10.35;;;;;;;;;;5016238;28;20034;-75
2023/01/30 10:05:00;;;;;;;12.45;9.40;;;;;;;;;;5015971;28;20038;-77
2023/01/30 10:07:39;;;;;;;12.52;9.23;;;;;;;;;;5047433;28;20123;-79
2023/01/30 10:10:11;;;;;;;12.10;10.93;;;;;;;;;;5031794;28;20033;-77
2023/01/30 10:12:50;;;;;;;10.13;9.02;;;;;;;;;;5015639;28;20088;-77
2023/01/30 10:15:34;;;;;;;11.27;10.15;;;;;;;;;;5018663;28;20124;-77
2023/01/30 10:18:10;;;;;;;9.60;7.97;;;;;;;;;;5018040;28;20103;-76
2023/01/30 10:20:52;;;;;;;10.27;8.48;;;;;;;;;;5058179;28;20064;-76
2023/01/30 10:23:37;;;;;;;12.63;9.68;;;;;;;;;;5016887;28;20086;-77
2023/01/30 10:26:13;;;;;;;10.57;9.07;;;;;;;;;;5015228;28;20030;-76
2023/01/30 10:28:53;;;;;;;6.75;6.15;;;;;;;;;;5021133;28;20033;-76
2023/01/30 10:31:19;;;;;;;8.90;8.10;;;;;;;;;;5019934;28;20036;-75
2023/01/30 10:33:56;;;;;;;7.75;6.57;;;;;;;;;;5015102;28;20127;-75
2023/01/30 10:36:24;;;;;;;8.57;7.70;;;;;;;;;;5034225;28;20057;-76
2023/01/30 10:38:50;;;;;;;10.57;9.40;;;;;;;;;;5017077;28;20531;-75
2023/01/30 10:41:16;;;;;;;9.43;8.57;;;;;;;;;;5019193;28;20052;-76
2023/01/30 10:44:01;;;;;;;10.38;9.13;;;;;;;;;;5016185;28;20048;-76
2023/01/30 10:46:45;;;;;;;9.02;8.10;;;;;;;;;;5029948;28;20055;-76
2023/01/30 10:49:41;;;;;;;8.07;7.25;;;;;;;;;;5015479;28;20026;-76
2023/01/30 10:52:26;;;;;;;10.93;9.20;;;;;;;;;;5004546;28;20052;-76
2023/01/30 10:55:11;;;;;;;9.95;8.85;;;;;;;;;;5021012;28;20138;-76
2023/01/30 10:57:42;;;;;;;9.55;8.65;;;;;;;;;;5014873;28;20483;-74
2023/01/30 11:00:24;;;;;;;8.32;7.35;;;;;;;;;;5022278;28;20037;-81
2023/01/30 11:02:50;;;;;;;10.00;9.10;;;;;;;;;;5017701;28;20045;-75
2023/01/30 11:05:20;;;;;;;9.68;8.75;;;;;;;;;;5020401;28;20063;-76
2023/01/30 11:07:46;;;;;;;9.23;7.95;;;;;;;;;;5001066;28;20488;-76
2023/01/30 11:10:14;;;;;;;9.07;8.20;;;;;;;;;;5015608;28;20030;-76
2023/01/30 11:12:40;;;;;;;9.75;7.93;;;;;;;;;;5023537;28;20040;-79
2023/01/30 11:15:07;;;;;;;12.85;10.57;;;;;;;;;;5031500;28;20030;-77
2023/01/30 11:17:35;;;;;;;9.32;6.95;;;;;;;;;;5021698;28;20033;-76
2023/01/30 11:20:07;;;;;;;10.70;9.70;;;;;;;;;;5029324;28;20045;-76
2023/01/30 11:22:33;;;;;;;10.93;8.90;;;;;;;;;;5014920;28;20042;-77
2023/01/30 11:25:00;;;;;;;11.13;9.95;;;;;;;;;;5013976;28;20092;-77
2023/01/30 11:27:30;;;;;;;6.85;6.18;;;;;;;;;;5017405;28;20038;-76
2023/01/30 11:30:22;;;;;;;10.05;7.75;;;;;;;;;;5016266;28;20030;-75
2023/01/30 11:32:48;;;;;;;10.20;7.82;;;;;;;;;;5012476;28;20096;-77
2023/01/30 11:35:14;;;;;;;8.60;7.80;;;;;;;;;;5015728;28;20036;-77
2023/01/30 11:37:41;;;;;;;7.57;6.45;;;;;;;;;;5015438;28;20052;-78
2023/01/30 11:40:16;;;;;;;9.93;8.93;;;;;;;;;;5019302;28;20048;-77
2023/01/30 11:42:43;;;;;;;10.98;9.60;;;;;;;;;;5001144;28;20022;-77
2023/01/30 11:45:09;;;;;;;10.73;9.20;;;;;;;;;;5019988;28;20732;-78
2023/01/30 11:47:35;;;;;;;8.98;8.18;;;;;;;;;;5020704;28;20029;-77
2023/01/30 11:50:02;;;;;;;11.80;10.68;;;;;;;;;;5030017;28;20029;-79
2023/01/30 11:52:29;;;;;;;10.23;8.82;;;;;;;;;;5017338;28;20037;-76
2023/01/30 11:55:06;;;;;;;9.48;7.05;;;;;;;;;;5035848;28;20419;-76
2023/01/30 11:57:58;;;;;;;17.38;12.02;;;;;;;;;;5023219;28;20120;-75
2023/01/30 12:00:32;;;;;;;10.45;9.35;;;;;;;;;;5012772;28;20590;-79
2023/01/30 12:02:59;;;;;;;10.77;9.75;;;;;;;;;;5016682;28;20041;-78
2023/01/30 12:05:54;;;;;;;10.57;9.38;;;;;;;;;;5019427;28;20504;-79
2023/01/30 12:08:20;;;;;;;8.43;7.70;;;;;;;;;;5021863;28;20837;-78
2023/01/30 12:10:47;;;;;;;10.82;7.65;;;;;;;;;;5006793;28;20033;-78
2023/01/30 12:13:32;;;;;;;9.30;8.40;;;;;;;;;;5034333;28;20037;-76
2023/01/30 12:16:05;;;;;;;9.13;8.25;;;;;;;;;;5044222;28;20033;-77
2023/01/30 12:18:36;;;;;;;10.73;9.63;;;;;;;;;;5032701;28;20060;-77
2023/01/30 12:21:05;;;;;;;9.63;8.65;;;;;;;;;;5032276;28;20539;-77
2023/01/30 12:23:39;;;;;;;8.80;8.00;;;;;;;;;;5034174;28;20091;-74
2023/01/30 12:26:05;;;;;;;11.07;9.45;;;;;;;;;;5020363;28;20116;-77
2023/01/30 12:28:49;;;;;;;10.13;9.13;;;;;;;;;;5023618;28;20038;-76
2023/01/30 12:31:15;;;;;;;12.65;9.38;;;;;;;;;;5021967;28;20047;-74
2023/01/30 12:33:41;;;;;;;7.97;7.15;;;;;;;;;;5017590;28;20076;-75
2023/01/30 12:36:13;;;;;;;9.75;8.85;;;;;;;;;;5018105;28;20084;-75
2023/01/30 12:38:42;;;;;;;9.18;8.38;;;;;;;;;;5017161;28;20033;-76
2023/01/30 12:41:25;;;;;;;9.80;8.85;;;;;;;;;;5017553;28;20056;-81
2023/01/30 12:43:58;;;;;;;9.50;8.65;;;;;;;;;;5023185;28;20033;-82
2023/01/30 12:46:43;;;;;;;8.32;7.60;;;;;;;;;;5033409;28;20132;-80
2023/01/30 12:49:31;;;;;;;9.05;8.18;;;;;;;;;;5015388;28;20112;-78
2023/01/30 12:52:16;;;;;;;8.73;7.82;;;;;;;;;;5012815;28;20062;-79
2023/01/30 12:55:08;;;;;;;6.88;6.28;;;;;;;;;;5020900;28;20044;-79
2023/01/30 12:57:37;;;;;;;6.50;5.93;;;;;;;;;;5013921;28;20053;-77
2023/01/30 13:00:15;;;;;;;10.38;9.48;;;;;;;;;;5049177;28;20049;-78
2023/01/30 13:02:41;;;;;;;9.15;8.35;;;;;;;;;;5021061;28;20025;-78
2023/01/30 13:05:08;;;;;;;7.00;6.45;;;;;;;;;;5027467;28;20072;-77
2023/01/30 13:08:01;;;;;;;7.65;6.95;;;;;;;;;;5020832;28;20049;-79
2023/01/30 13:10:33;;;;;;;6.28;5.78;;;;;;;;;;5001454;28;20241;-78
2023/01/30 13:13:08;;;;;;;7.72;6.97;;;;;;;;;;5050397;28;20068;-76
2023/01/30 13:15:40;;;;;;;9.50;8.75;;;;;;;;;;5035703;28;20033;-75
2023/01/30 13:18:14;;;;;;;8.10;6.97;;;;;;;;;;5021982;28;20057;-76
2023/01/30 13:20:49;;;;;;;7.47;6.80;;;;;;;;;;5046001;28;20041;-76
2023/01/30 13:23:16;;;;;;;6.45;5.78;;;;;;;;;;5026905;28;20459;-75
2023/01/30 13:26:02;;;;;;;7.65;6.85;;;;;;;;;;5019196;28;20041;-77
2023/01/30 13:28:55;;;;;;;6.32;5.82;;;;;;;;;;5019591;28;20514;-75
2023/01/30 13:31:22;;;;;;;6.90;6.30;;;;;;;;;;5013507;28;20045;-74
2023/01/30 13:33:49;;;;;;;4.95;4.55;;;;;;;;;;5016942;28;20516;-74
2023/01/30 13:36:16;;;;;;;5.28;4.78;;;;;;;;;;4999544;28;20045;-76
2023/01/30 13:38:56;;;;;;;8.15;7.45;;;;;;;;;;5004929;28;20472;-75
2023/01/30 13:41:22;;;;;;;5.68;5.03;;;;;;;;;;5015475;28;20504;-74
2023/01/30 13:43:49;;;;;;;6.30;5.72;;;;;;;;;;5022021;28;20028;-74
2023/01/30 13:46:17;;;;;;;7.13;6.38;;;;;;;;;;5024522;28;20040;-74
2023/01/30 13:49:06;;;;;;;6.25;5.75;;;;;;;;;;5023089;28;20029;-74
2023/01/30 13:51:32;;;;;;;5.47;5.07;;;;;;;;;;4999153;28;20117;-76
2023/01/30 13:54:04;;;;;;;5.43;4.90;;;;;;;;;;5027240;28;20042;-75
2023/01/30 13:56:33;;;;;;;5.97;5.50;;;;;;;;;;5038933;28;20037;-74
2023/01/30 13:59:28;;;;;;;5.70;5.20;;;;;;;;;;5018244;28;20133;-74
2023/01/30 14:02:00;;;;;;;6.57;5.68;;;;;;;;;;5020645;28;20045;-77
2023/01/30 14:04:49;;;;;;;4.80;4.38;;;;;;;;;;5027687;28;20186;-76
2023/01/30 14:07:24;;;;;;;5.78;5.28;;;;;;;;;;5025347;28;20029;-76
2023/01/30 14:10:00;;;;;;;4.40;4.10;;;;;;;;;;5023084;28;20037;-78
2023/01/30 14:12:27;;;;;;;4.72;4.43;;;;;;;;;;5029689;28;20041;-75
2023/01/30 14:14:58;;;;;;;4.57;4.28;;;;;;;;;;5035373;28;20037;-75
2023/01/30 14:17:24;;;;;;;7.88;5.93;;;;;;;;;;5029440;28;20125;-75
2023/01/30 14:19:56;;;;;;;5.00;4.60;;;;;;;;;;5029389;28;20040;-75
2023/01/30 14:22:26;;;;;;;5.72;5.32;;;;;;;;;;5032192;28;20044;-75
2023/01/30 14:25:10;;;;;;;6.00;5.57;;;;;;;;;;5030372;28;20125;-74
2023/01/30 14:27:36;;;;;;;5.35;4.95;;;;;;;;;;5023359;28;20025;-74
2023/01/30 14:30:12;;;;;;;5.18;4.78;;;;;;;;;;5016486;28;20037;-74
2023/01/30 14:32:52;;;;;;;5.10;4.70;;;;;;;;;;5018082;28;20061;-75
2023/01/30 14:35:22;;;;;;;4.85;4.55;;;;;;;;;;5021311;28;20162;-76
2023/01/30 14:37:49;;;;;;;5.55;5.05;;;;;;;;;;5016418;28;20116;-76
2023/01/30 14:40:21;;;;;;;5.28;4.47;;;;;;;;;;5013635;28;20061;-77
2023/01/30 14:43:06;;;;;;;4.78;4.45;;;;;;;;;;5015888;28;20018;-74
2023/01/30 14:45:41;;;;;;;5.50;5.10;;;;;;;;;;5016323;28;20068;-74
2023/01/30 14:48:30;;;;;;;4.65;4.25;;;;;;;;;;5046752;28;20060;-74
2023/01/30 14:51:15;;;;;;;5.20;4.70;;;;;;;;;;5018526;28;20038;-74